createdAt,value
2023-04-11T00:02:08.202Z,100692.44
2023-04-11T00:04:39.133Z,100697.88
2023-04-11T00:07:07.680Z,100701.47
2023-04-11T00:09:35.733Z,100700.59
2023-04-11T00:12:03.437Z,100707.75
2023-04-11T00:14:32.297Z,100703.25
2023-04-11T00:17:02.008Z,100696.09
2023-04-11T00:19:29.776Z,100699.72
2023-04-11T00:21:58.437Z,100699.72
2023-04-11T00:24:27.002Z,100708.59
2023-04-11T00:26:54.928Z,100705.00
2023-04-11T00:29:22.649Z,100699.63
2023-04-11T00:31:51.256Z,100691.56
2023-04-11T00:34:20.603Z,100696.09
2023-04-11T00:36:48.513Z,100696.09
2023-04-11T00:39:18.801Z,100702.38
2023-04-11T00:41:46.581Z,100693.53
2023-04-11T00:44:14.600Z,100690.91
2023-04-11T00:46:46.128Z,100688.28
2023-04-11T00:49:14.526Z,100694.47
2023-04-11T00:51:43.697Z,100692.69
2023-04-11T00:54:12.087Z,100690.91
2023-04-11T00:56:40.713Z,100691.81
2023-04-11T00:59:08.461Z,100698.13
2023-04-11T01:01:36.575Z,100711.47
2023-04-11T01:04:05.409Z,100699.06
2023-04-11T01:06:33.795Z,100697.25
2023-04-11T01:09:04.838Z,100705.28
2023-04-11T01:11:33.536Z,100701.66
2023-04-11T01:14:01.590Z,100705.22
2023-04-11T01:16:29.359Z,100711.59
2023-04-11T01:18:57.332Z,100706.31
2023-04-11T01:21:27.082Z,100708.13
2023-04-11T01:23:58.469Z,100706.34
2023-04-11T01:26:26.325Z,100708.13
2023-04-11T01:28:54.246Z,100699.19
2023-04-11T01:31:22.567Z,100706.41
2023-04-11T01:33:50.650Z,100709.13
2023-04-11T01:36:18.441Z,100705.59
2023-04-11T01:38:46.226Z,100709.16
2023-04-11T01:41:17.811Z,100710.06
2023-04-11T01:43:46.132Z,100707.41
2023-04-11T01:46:14.881Z,100703.94
2023-04-11T01:48:43.333Z,100708.44
2023-04-11T01:51:11.098Z,100704.91
2023-04-11T01:53:38.925Z,100712.06
2023-04-11T01:56:07.752Z,100712.03
2023-04-11T01:58:36.835Z,100713.81
2023-04-11T02:01:05.507Z,100720.97
2023-04-11T02:03:33.420Z,100721.00
2023-04-11T02:06:01.162Z,100724.50
2023-04-11T02:08:28.914Z,100722.78
2023-04-11T02:10:56.614Z,100723.72
2023-04-11T02:13:24.388Z,100723.81
2023-04-11T02:15:53.521Z,100725.66
2023-04-11T02:18:21.271Z,100729.25
2023-04-11T02:20:50.699Z,100725.66
2023-04-11T02:23:18.411Z,100730.19
2023-04-11T02:25:46.172Z,100726.59
2023-04-11T02:28:13.864Z,100733.69
2023-04-11T02:30:41.633Z,100734.56
2023-04-11T02:33:10.761Z,100732.78
2023-04-11T02:35:38.587Z,100727.44
2023-04-11T02:38:06.261Z,100731.00
2023-04-11T02:40:33.981Z,100730.13
2023-04-11T02:43:02.113Z,100737.31
2023-04-11T02:45:29.844Z,100738.16
2023-04-11T02:47:58.420Z,100747.97
2023-04-11T02:50:27.712Z,100742.69
2023-04-11T02:52:55.666Z,100744.53
2023-04-11T02:55:24.140Z,100748.06
2023-04-11T02:57:52.296Z,100749.88
2023-04-11T03:00:21.384Z,100746.28
2023-04-11T03:02:50.124Z,100748.13
2023-04-11T03:05:17.900Z,100747.22
2023-04-11T03:07:47.040Z,100749.84
2023-04-11T03:10:14.830Z,100750.69
2023-04-11T03:12:42.687Z,100748.94
2023-04-11T03:15:10.959Z,100753.44
2023-04-11T03:17:38.690Z,100742.78
2023-04-11T03:20:08.275Z,100745.47
2023-04-11T03:22:36.024Z,100749.00
2023-04-11T03:25:06.358Z,100755.25
2023-04-11T03:27:34.091Z,100755.25
2023-04-11T03:30:01.792Z,100751.72
2023-04-11T03:32:29.602Z,100749.13
2023-04-11T03:35:01.333Z,100755.25
2023-04-11T03:37:29.170Z,100744.63
2023-04-11T03:39:56.981Z,100750.03
2023-04-11T03:42:26.098Z,100750.88
2023-04-11T03:44:53.773Z,100753.56
2023-04-11T03:47:21.561Z,100756.22
2023-04-11T03:49:49.225Z,100774.09
2023-04-11T03:52:17.542Z,100767.81
2023-04-11T03:54:47.542Z,100786.53
2023-04-11T03:57:15.632Z,100773.19
2023-04-11T03:59:44.671Z,100783.00
2023-04-11T04:02:12.637Z,100790.19
2023-04-11T04:04:43.447Z,100784.91
2023-04-11T04:07:11.207Z,100787.53
2023-04-11T04:09:38.936Z,100795.59
2023-04-11T04:12:07.620Z,100792.03
2023-04-11T04:14:35.514Z,100794.78
2023-04-11T04:17:04.643Z,100793.03
2023-04-11T04:19:32.349Z,100804.56
2023-04-11T04:22:00.053Z,100797.47
2023-04-11T04:24:27.880Z,100809.06
2023-04-11T04:26:57.915Z,100812.59
2023-04-11T04:29:34.086Z,100807.28
2023-04-11T04:32:10.691Z,100801.09
2023-04-11T04:34:41.700Z,100805.53
2023-04-11T04:37:09.355Z,100797.50
2023-04-11T04:39:38.137Z,100821.56
2023-04-11T04:42:06.002Z,100813.59
2023-04-11T04:44:34.256Z,100808.22
2023-04-11T04:47:01.956Z,100804.69
2023-04-11T04:49:31.060Z,100810.03
2023-04-11T04:51:58.727Z,100818.06
2023-04-11T04:54:26.537Z,100821.66
2023-04-11T04:56:54.261Z,100819.91
2023-04-11T04:59:22.140Z,100826.97
2023-04-11T05:01:51.579Z,100829.69
2023-04-11T05:04:19.785Z,100835.03
2023-04-11T05:06:48.928Z,100844.81
2023-04-11T05:09:16.642Z,100840.38
2023-04-11T05:11:44.700Z,100847.50
2023-04-11T05:14:12.365Z,100841.28
2023-04-11T05:16:42.079Z,100851.91
2023-04-11T05:19:10.076Z,100856.41
2023-04-11T05:21:38.110Z,100858.16
2023-04-11T05:24:07.507Z,100857.25
2023-04-11T05:26:35.404Z,100864.38
2023-04-11T05:29:03.110Z,100859.00
2023-04-11T05:31:30.923Z,100866.06
2023-04-11T05:33:59.083Z,100863.41
2023-04-11T05:36:28.339Z,100873.19
2023-04-11T05:38:56.135Z,100881.19
2023-04-11T05:41:25.502Z,100884.78
2023-04-11T05:43:53.235Z,100887.47
2023-04-11T05:46:20.965Z,100887.47
2023-04-11T05:48:48.752Z,100899.06
2023-04-11T05:51:16.533Z,100897.28
2023-04-11T05:53:44.945Z,100907.06
2023-04-11T05:56:12.957Z,100906.16
2023-04-11T05:58:43.945Z,100913.28
2023-04-11T06:01:14.303Z,100914.13
2023-04-11T06:03:42.208Z,100922.13
2023-04-11T06:06:10.228Z,100929.22
2023-04-11T06:08:38.158Z,100923.88
2023-04-11T06:11:06.460Z,100923.88
2023-04-11T06:13:34.155Z,100919.41
2023-04-11T06:16:03.585Z,100936.25
2023-04-11T06:18:31.575Z,100930.00
2023-04-11T06:20:59.348Z,100934.38
2023-04-11T06:23:27.012Z,100942.31
2023-04-11T06:25:54.762Z,100946.72
2023-04-11T06:28:22.472Z,100949.34
2023-04-11T06:30:50.377Z,100961.84
2023-04-11T06:33:19.537Z,100956.53
2023-04-11T06:35:47.395Z,100973.44
2023-04-11T06:38:15.229Z,100970.75
2023-04-11T06:40:42.977Z,100968.03
2023-04-11T06:43:11.259Z,100973.34
2023-04-11T06:45:39.088Z,100976.00
2023-04-11T06:48:07.594Z,100976.91
2023-04-11T06:50:40.128Z,100976.00
2023-04-11T06:53:07.715Z,100978.69
2023-04-11T06:55:35.987Z,100983.06
2023-04-11T06:58:04.180Z,100976.91
2023-04-11T07:00:32.031Z,100983.97
2023-04-11T07:03:01.126Z,100993.75
2023-04-11T07:05:29.088Z,100991.09
2023-04-11T07:07:58.315Z,100988.41
2023-04-11T07:10:26.143Z,100989.25
2023-04-11T07:12:53.977Z,100994.63
2023-04-11T07:15:21.776Z,100997.19
2023-04-11T07:17:52.142Z,100994.44
2023-04-11T07:20:20.883Z,100992.56
2023-04-11T07:22:48.812Z,100995.22
2023-04-11T07:25:18.562Z,100999.69
2023-04-11T07:27:46.450Z,101003.28
2023-04-11T07:30:15.496Z,101012.06
2023-04-11T07:32:43.404Z,101005.81
2023-04-11T07:35:11.533Z,101004.81
2023-04-11T07:37:39.392Z,101004.72
2023-04-11T07:40:11.745Z,101007.41
2023-04-11T07:42:41.028Z,101011.03
2023-04-11T07:45:10.001Z,101006.50
2023-04-11T07:47:38.072Z,101006.50
2023-04-11T07:50:06.867Z,101004.75
2023-04-11T07:52:35.401Z,101007.41
2023-04-11T07:55:04.175Z,101015.38
2023-04-11T07:57:32.106Z,101005.59
2023-04-11T08:00:01.911Z,101000.16
2023-04-11T08:02:29.957Z,101003.59
2023-04-11T08:04:57.979Z,101012.44
2023-04-11T08:07:26.161Z,101024.88
2023-04-11T08:09:54.043Z,101030.13
2023-04-11T08:12:21.869Z,101028.44
2023-04-11T08:14:49.650Z,101017.69
2023-04-11T08:17:27.724Z,101016.75
2023-04-11T08:19:57.594Z,101042.75
2023-04-11T08:22:26.200Z,101038.25
2023-04-11T08:24:54.016Z,101043.56
2023-04-11T08:27:21.798Z,101054.22
2023-04-11T08:29:49.540Z,101046.22
2023-04-11T08:32:18.924Z,101053.25
2023-04-11T08:34:46.866Z,101050.47
2023-04-11T08:37:14.650Z,101056.63
2023-04-11T08:39:42.463Z,101058.44
2023-04-11T08:42:22.611Z,101048.69
2023-04-11T08:44:54.237Z,101056.03
2023-04-11T08:47:23.662Z,101063.25
2023-04-11T08:49:51.712Z,101056.13
2023-04-11T08:52:20.328Z,101066.88
2023-04-11T08:54:48.586Z,101058.78
2023-04-11T08:57:26.231Z,101060.50
2023-04-11T08:59:55.473Z,101062.13
2023-04-11T09:02:24.810Z,101073.59
2023-04-11T09:04:52.789Z,101069.84
2023-04-11T09:07:21.978Z,101065.47
2023-04-11T09:09:49.787Z,101069.09
2023-04-11T09:12:22.927Z,101082.44
2023-04-11T09:14:50.789Z,101085.13
2023-04-11T09:17:18.658Z,101069.72
2023-04-11T09:19:49.315Z,101074.81
2023-04-11T09:22:17.493Z,101075.66
2023-04-11T09:24:46.800Z,101079.09
2023-04-11T09:27:16.811Z,101088.13
2023-04-11T09:29:46.414Z,101109.72
2023-04-11T09:32:32.031Z,101081.19
2023-04-11T09:35:12.515Z,101087.44
2023-04-11T09:37:45.093Z,101075.91
2023-04-11T09:40:14.657Z,101089.97
2023-04-11T09:42:43.162Z,101088.13
2023-04-11T09:45:29.316Z,101093.50
2023-04-11T09:48:00.469Z,101066.75
2023-04-11T09:50:29.895Z,101073.72
2023-04-11T09:52:59.315Z,101078.03
2023-04-11T09:55:27.602Z,101077.91
2023-04-11T09:57:56.292Z,101073.41
2023-04-11T10:00:29.159Z,101068.78
2023-04-11T10:02:58.098Z,101089.06
2023-04-11T10:05:28.087Z,101083.66
2023-04-11T10:08:03.749Z,101087.97
2023-04-11T10:10:31.659Z,101094.69
2023-04-11T10:12:59.561Z,101083.75
2023-04-11T10:15:27.889Z,101084.69
2023-04-11T10:18:19.532Z,101090.75
2023-04-11T10:20:50.247Z,101079.06
2023-04-11T10:23:19.689Z,101095.13
2023-04-11T10:25:55.449Z,101095.75
2023-04-11T10:28:34.782Z,101096.75
2023-04-11T10:31:04.829Z,101101.38
2023-04-11T10:33:33.413Z,101103.94
2023-04-11T10:36:03.638Z,101090.19
2023-04-11T10:38:51.658Z,101083.00
2023-04-11T10:41:27.894Z,101083.72
2023-04-11T10:44:14.106Z,101095.97
2023-04-11T10:46:46.382Z,101087.75
2023-04-11T10:49:14.324Z,101074.25
2023-04-11T10:51:42.162Z,101076.97
2023-04-11T10:54:26.099Z,101072.28
2023-04-11T10:56:57.476Z,101069.66
2023-04-11T10:59:59.838Z,101082.94
2023-04-11T11:02:39.095Z,101066.09
2023-04-11T11:05:18.259Z,101082.59
2023-04-11T11:07:51.157Z,101076.06
2023-04-11T11:10:39.074Z,101084.38
2023-04-11T11:13:06.889Z,101094.34
2023-04-11T11:15:37.735Z,101093.75
2023-04-11T11:18:08.166Z,101078.63
2023-04-11T11:20:37.382Z,101091.22
2023-04-11T11:23:09.367Z,101086.13
2023-04-11T11:25:38.811Z,101096.78
2023-04-11T11:28:08.893Z,101097.56
2023-04-11T11:30:37.674Z,101084.63
2023-04-11T11:33:19.125Z,101069.63
2023-04-11T11:35:52.045Z,101091.66
2023-04-11T11:38:20.455Z,101084.50
2023-04-11T11:40:50.304Z,101096.97
2023-04-11T11:43:18.185Z,101090.50
2023-04-11T11:45:46.518Z,101092.28
2023-04-11T11:48:21.729Z,101087.00
2023-04-11T11:50:56.855Z,101087.31
2023-04-11T11:53:25.580Z,101092.75
2023-04-11T11:55:56.827Z,101091.31
2023-04-11T11:58:25.321Z,101080.28
2023-04-11T12:00:53.861Z,101072.72
2023-04-11T12:03:24.164Z,101096.00
2023-04-11T12:05:52.965Z,101093.25
2023-04-11T12:08:22.749Z,101107.69
2023-04-11T12:10:51.921Z,101086.88
2023-04-11T12:13:23.548Z,101082.69
2023-04-11T12:15:53.323Z,101086.56
2023-04-11T12:18:22.122Z,101092.63
2023-04-11T12:20:50.342Z,101092.28
2023-04-11T12:23:18.296Z,101097.38
2023-04-11T12:25:47.623Z,101097.84
2023-04-11T12:28:15.535Z,101097.53
2023-04-11T12:30:44.680Z,101104.22
2023-04-11T12:33:12.444Z,101097.94
2023-04-11T12:35:40.341Z,101100.56
2023-04-11T12:38:08.193Z,101105.97
2023-04-11T12:40:35.988Z,101103.09
2023-04-11T12:43:03.776Z,101101.41
2023-04-11T12:45:32.500Z,101112.25
2023-04-11T12:48:01.703Z,101096.88
2023-04-11T12:50:29.646Z,101108.91
2023-04-11T12:52:57.526Z,101126.56
2023-04-11T12:55:25.570Z,101107.38
2023-04-11T12:57:53.448Z,101121.59
2023-04-11T13:00:21.574Z,101118.13
2023-04-11T13:02:50.017Z,101129.09
2023-04-11T13:05:19.877Z,101135.97
2023-04-11T13:07:47.724Z,101136.25
2023-04-11T13:10:16.642Z,101125.78
2023-04-11T13:12:45.918Z,101125.06
2023-04-11T13:15:15.373Z,101124.19
2023-04-11T13:17:43.613Z,101128.63
2023-04-11T13:20:12.640Z,101133.31
2023-04-11T13:22:43.480Z,101128.94
2023-04-11T13:25:12.075Z,101128.44
2023-04-11T13:27:40.398Z,101136.50
2023-04-11T13:30:10.162Z,101129.25
2023-04-11T13:32:39.265Z,101115.50
2023-04-11T13:35:08.284Z,101121.09
2023-04-11T13:37:36.550Z,101119.47
2023-04-11T13:40:11.140Z,101104.41
2023-04-11T13:42:39.318Z,101105.50
2023-04-11T13:45:08.592Z,101124.00
2023-04-11T13:47:38.734Z,101134.06
2023-04-11T13:50:08.692Z,101119.75
2023-04-11T13:52:36.725Z,101125.13
2023-04-11T13:55:07.055Z,101117.59
2023-04-11T13:57:34.852Z,101125.59
2023-04-11T14:00:05.643Z,101110.06
2023-04-11T14:02:33.578Z,101110.16
2023-04-11T14:05:01.921Z,101116.13
2023-04-11T14:07:29.805Z,101117.78
2023-04-11T14:09:57.732Z,101107.53
2023-04-11T14:12:27.586Z,101109.13
2023-04-11T14:14:55.878Z,101106.63
2023-04-11T14:17:23.987Z,101103.97
2023-04-11T14:19:52.272Z,101105.34
2023-04-11T14:22:20.603Z,101101.31
2023-04-11T14:24:48.522Z,101097.78
2023-04-11T14:27:16.905Z,101086.69
2023-04-11T14:29:47.437Z,101086.63
2023-04-11T14:32:15.504Z,101081.09
2023-04-11T14:34:43.527Z,101088.72
2023-04-11T14:37:11.501Z,101088.19
2023-04-11T14:39:40.399Z,101082.94
2023-04-11T14:42:09.196Z,101078.22
2023-04-11T14:44:39.265Z,101078.00
2023-04-11T14:47:08.637Z,101075.06
2023-04-11T14:49:37.119Z,101068.72
2023-04-11T14:52:05.163Z,101070.47
2023-04-11T14:54:33.178Z,101067.03
2023-04-11T14:57:01.700Z,101059.13
2023-04-11T14:59:29.772Z,101063.56
2023-04-11T15:01:58.221Z,101060.50
2023-04-11T15:04:27.830Z,101054.47
2023-04-11T15:06:56.642Z,101061.97
2023-04-11T15:09:24.524Z,101063.72
2023-04-11T15:11:52.538Z,101056.50
2023-04-11T15:14:20.926Z,101065.69
2023-04-11T15:16:48.982Z,101059.03
2023-04-11T15:19:16.769Z,101055.03
2023-04-11T15:21:47.229Z,101054.84
2023-04-11T15:24:17.138Z,101052.28
2023-04-11T15:26:46.610Z,101051.63
2023-04-11T15:29:16.006Z,101050.22
2023-04-11T15:31:44.097Z,101057.50
2023-04-11T15:34:14.127Z,101036.09
2023-04-11T15:36:43.063Z,101030.25
2023-04-11T15:39:12.374Z,101038.09
2023-04-11T15:41:41.405Z,101033.75
2023-04-11T15:44:09.681Z,101055.31
2023-04-11T15:46:38.331Z,101039.38
2023-04-11T15:49:06.274Z,101034.22
2023-04-11T15:51:36.543Z,101034.31
2023-04-11T15:54:07.473Z,101033.13
2023-04-11T15:56:37.117Z,101024.78
2023-04-11T15:59:10.993Z,101032.53
2023-04-11T16:01:40.660Z,101030.56
2023-04-11T16:04:09.302Z,101022.50
2023-04-11T16:06:37.785Z,101023.91
2023-04-11T16:09:05.838Z,101025.13
2023-04-11T16:11:35.063Z,101027.19
2023-04-11T16:14:05.156Z,101026.50
2023-04-11T16:16:33.431Z,101023.06
2023-04-11T16:19:02.334Z,101027.53
2023-04-11T16:21:31.530Z,101019.38
2023-04-11T16:24:00.199Z,101018.69
2023-04-11T16:26:28.741Z,101020.53
2023-04-11T16:28:57.347Z,101015.06
2023-04-11T16:31:29.543Z,101007.00
2023-04-11T16:33:58.099Z,101008.81
2023-04-11T16:36:27.631Z,101001.72
2023-04-11T16:38:56.086Z,101005.59
2023-04-11T16:41:24.567Z,101001.25
2023-04-11T16:43:52.566Z,101003.06
2023-04-11T16:46:25.956Z,101002.16
2023-04-11T16:49:07.573Z,100995.13
2023-04-11T16:51:37.416Z,101000.59
2023-04-11T16:54:09.956Z,100999.88
2023-04-11T16:56:39.450Z,100996.28
2023-04-11T16:59:08.137Z,100999.84
2023-04-11T17:01:36.970Z,101002.66
2023-04-11T17:04:06.970Z,101002.81
2023-04-11T17:06:35.648Z,101000.16
2023-04-11T17:09:04.290Z,100999.44
2023-04-11T17:11:32.085Z,100995.22
2023-04-11T17:14:00.094Z,100991.69
2023-04-11T17:16:30.574Z,100998.88
2023-04-11T17:19:00.922Z,100990.06
2023-04-11T17:21:34.165Z,100996.38
2023-04-11T17:24:02.181Z,101000.06
2023-04-11T17:26:30.026Z,100993.91
2023-04-11T17:28:57.855Z,100995.69
2023-04-11T17:31:27.997Z,100997.63
2023-04-11T17:33:56.353Z,100988.72
2023-04-11T17:36:24.779Z,100992.47
2023-04-11T17:38:56.959Z,100981.94
2023-04-11T17:41:24.718Z,100989.16
2023-04-11T17:43:52.661Z,100987.47
2023-04-11T17:46:20.604Z,100979.63
2023-04-11T17:48:48.462Z,100980.59
2023-04-11T17:51:16.527Z,100973.50
2023-04-11T17:53:44.364Z,100977.19
2023-04-11T17:56:14.456Z,100972.75
2023-04-11T17:58:47.201Z,100965.63
2023-04-11T18:01:15.879Z,100966.63
2023-04-11T18:03:44.356Z,100961.34
2023-04-11T18:06:12.301Z,100968.56
2023-04-11T18:11:13.790Z,100958.06
2023-04-11T18:13:43.775Z,100958.16
2023-04-11T18:16:12.079Z,100960.03
2023-04-11T18:18:42.553Z,100961.84
2023-04-11T18:21:10.387Z,100956.56
2023-04-11T18:23:39.558Z,100959.28
2023-04-11T18:26:07.353Z,100961.22
2023-04-11T18:28:37.722Z,100957.69
2023-04-11T18:31:06.974Z,100952.38
2023-04-11T18:33:37.367Z,100946.13
2023-04-11T18:36:07.530Z,100955.13
2023-04-11T18:38:35.636Z,100939.97
2023-04-11T18:41:07.276Z,100946.31
2023-04-11T18:43:38.451Z,100949.91
2023-04-11T18:46:07.812Z,100955.22
2023-04-11T18:48:36.605Z,100950.75
2023-04-11T18:51:05.107Z,100955.22
2023-04-11T18:53:34.873Z,100957.84
2023-04-11T18:56:04.054Z,100947.25
2023-04-11T18:58:34.442Z,100947.34
2023-04-11T19:01:14.851Z,100946.44
2023-04-11T19:03:46.323Z,100935.72
2023-04-11T19:06:15.795Z,100943.81
2023-04-11T19:08:43.770Z,100941.13
2023-04-11T19:11:11.660Z,100951.91
2023-04-11T19:13:39.513Z,100937.63
2023-04-11T19:16:09.059Z,100929.63
2023-04-11T19:18:37.013Z,100939.47
2023-04-11T19:21:08.112Z,100938.63
2023-04-11T19:23:35.956Z,100938.69
2023-04-11T19:26:03.879Z,100936.03
2023-04-11T19:28:31.855Z,100935.22
2023-04-11T19:30:59.713Z,100926.31
2023-04-11T19:33:29.334Z,100920.97
2023-04-11T19:35:57.263Z,100917.50
2023-04-11T19:38:25.161Z,100922.88
2023-04-11T19:40:53.251Z,100912.16
2023-04-11T19:43:21.188Z,100905.94
2023-04-11T19:45:49.182Z,100915.75
2023-04-11T19:48:17.501Z,100912.16
2023-04-11T19:50:46.851Z,100912.09
2023-04-11T19:53:16.735Z,100904.97
2023-04-11T19:55:45.517Z,100907.66
2023-04-11T19:58:13.292Z,100900.47
2023-04-11T20:00:41.868Z,100890.59
2023-04-11T20:03:14.528Z,100878.88
2023-04-11T20:05:42.706Z,100882.47
2023-04-11T20:08:12.031Z,100872.59
2023-04-11T20:10:40.753Z,100876.22
2023-04-11T20:13:10.994Z,100865.50
2023-04-11T20:15:39.141Z,100865.50
2023-04-11T20:18:07.141Z,100854.75
2023-04-11T20:20:36.810Z,100841.38
2023-04-11T20:23:05.072Z,100844.97
2023-04-11T20:25:35.592Z,100835.06
2023-04-11T20:28:03.522Z,100828.78
2023-04-11T20:30:32.460Z,100830.59
2023-04-11T20:33:01.702Z,100824.34
2023-04-11T20:35:29.663Z,100810.94
2023-04-11T20:37:57.527Z,100810.97
2023-04-11T20:40:25.504Z,100803.88
2023-04-11T20:42:56.612Z,100808.41
2023-04-11T20:45:25.712Z,100806.69
2023-04-11T20:47:55.015Z,100806.75
2023-04-11T20:50:22.868Z,100794.31
2023-04-11T20:52:52.806Z,100797.94
2023-04-11T20:55:21.727Z,100802.47
2023-04-11T20:57:49.594Z,100794.47
2023-04-11T21:00:20.928Z,100789.09
2023-04-11T21:02:50.397Z,100790.84
2023-04-11T21:05:21.307Z,100786.41
2023-04-11T21:07:49.336Z,100781.06
2023-04-11T21:10:17.206Z,100781.06
2023-04-11T21:12:51.256Z,100782.84
2023-04-11T21:15:21.031Z,100781.06
2023-04-11T21:17:48.934Z,100773.06
2023-04-11T21:20:20.286Z,100773.06
2023-04-11T21:22:50.609Z,100764.19
2023-04-11T21:25:18.488Z,100763.28
2023-04-11T21:27:48.085Z,100752.59
2023-04-11T21:30:17.114Z,100752.69
2023-04-11T21:32:47.134Z,100749.16
2023-04-11T21:35:15.034Z,100737.56
2023-04-11T21:37:42.910Z,100736.69
2023-04-11T21:40:12.669Z,100734.94
2023-04-11T21:42:41.020Z,100732.22
2023-04-11T21:45:10.061Z,100725.97
2023-04-11T21:47:38.363Z,100729.53
2023-04-11T21:50:09.356Z,100724.19
2023-04-11T21:52:37.160Z,100718.88
2023-04-11T21:55:08.520Z,100709.97
2023-04-11T21:57:37.059Z,100707.38
2023-04-11T22:00:06.162Z,100705.66
2023-04-11T22:02:34.188Z,100696.72
2023-04-11T22:05:06.541Z,100700.34
2023-04-11T22:07:47.549Z,100693.19
2023-04-11T22:10:30.337Z,100686.94
2023-04-11T22:13:03.224Z,100684.28
2023-04-11T22:15:33.158Z,100679.88
2023-04-11T22:18:02.364Z,100678.19
2023-04-11T22:20:30.772Z,100679.13
2023-04-11T22:22:59.980Z,100675.56
2023-04-11T22:25:27.654Z,100671.13
2023-04-11T22:27:56.256Z,100665.84
2023-04-11T22:30:24.815Z,100665.88
2023-04-11T22:32:54.339Z,100652.47
2023-04-11T22:35:22.385Z,100652.47
2023-04-11T22:37:50.156Z,100639.97
2023-04-11T22:40:22.292Z,100648.06
2023-04-11T22:42:51.819Z,100638.28
2023-04-11T22:45:20.699Z,100636.53
2023-04-11T22:47:53.942Z,100628.44
2023-04-11T22:50:22.197Z,100622.25
2023-04-11T22:52:50.149Z,100616.94
2023-04-11T22:55:21.146Z,100612.50
2023-04-11T22:57:49.150Z,100614.34
2023-04-11T23:00:19.325Z,100608.06
2023-04-11T23:02:47.342Z,100600.97
2023-04-11T23:05:16.805Z,100599.19
2023-04-11T23:07:44.615Z,100593.88
2023-04-11T23:10:14.620Z,100590.34
2023-04-11T23:12:44.535Z,100586.75
2023-04-11T23:15:13.271Z,100585.84
2023-04-11T23:17:41.320Z,100592.09
2023-04-11T23:20:13.802Z,100578.78
2023-04-11T23:22:43.756Z,100566.28
2023-04-11T23:25:12.735Z,100564.47
2023-04-11T23:27:40.780Z,100557.41
2023-04-11T23:30:12.208Z,100542.28
2023-04-11T23:32:40.842Z,100536.09
2023-04-11T23:35:09.797Z,100529.81
2023-04-11T23:37:37.904Z,100528.97
2023-04-11T23:40:10.428Z,100531.66
2023-04-11T23:42:38.602Z,100523.63
2023-04-11T23:45:07.199Z,100524.53
2023-04-11T23:47:36.650Z,100518.28
2023-04-11T23:50:05.368Z,100508.53
2023-04-11T23:52:33.434Z,100507.63
2023-04-11T23:55:01.194Z,100510.28
2023-04-11T23:57:29.024Z,100499.59
2023-04-11T23:59:56.797Z,100491.56
